createdAt,value
2023-01-30T00:03:13.690Z,5.45
2023-01-30T00:07:16.486Z,6.07
2023-01-30T00:11:21.635Z,11.32
2023-01-30T00:15:24.960Z,10.93
2023-01-30T00:19:27.751Z,10.48
2023-01-30T00:23:39.655Z,11.53
2023-01-30T00:27:47.625Z,9.35
2023-01-30T00:31:52.616Z,9.52
2023-01-30T00:35:58.465Z,9.20
2023-01-30T00:40:06.278Z,8.75
2023-01-30T00:44:28.904Z,8.73
2023-01-30T00:48:32.424Z,9.10
2023-01-30T00:52:37.517Z,6.07
2023-01-30T00:56:40.299Z,5.47
2023-01-30T01:00:43.964Z,4.93
2023-01-30T01:04:47.029Z,4.93
2023-01-30T01:08:50.009Z,4.47
2023-01-30T01:12:53.611Z,5.78
2023-01-30T01:17:02.264Z,6.03
2023-01-30T01:21:05.536Z,5.97
2023-01-30T01:25:10.580Z,4.95
2023-01-30T01:29:17.030Z,6.85
2023-01-30T01:33:19.825Z,5.78
2023-01-30T01:37:22.641Z,6.30
2023-01-30T01:41:26.195Z,6.18
2023-01-30T01:45:30.102Z,5.93
2023-01-30T01:49:37.509Z,5.55
2023-01-30T01:53:47.459Z,6.15
2023-01-30T01:58:03.620Z,5.57
2023-01-30T02:02:12.967Z,4.63
2023-01-30T02:06:17.536Z,5.65
2023-01-30T02:10:27.673Z,5.70
2023-01-30T02:14:33.369Z,5.53
2023-01-30T02:18:39.648Z,5.00
2023-01-30T02:23:00.988Z,5.85
2023-01-30T02:27:19.551Z,5.20
2023-01-30T02:31:42.495Z,5.72
2023-01-30T02:36:38.139Z,5.60
2023-01-30T02:40:54.678Z,5.53
2023-01-30T02:45:14.521Z,4.80
2023-01-30T02:49:34.089Z,4.50
2023-01-30T02:53:37.927Z,4.85
2023-01-30T02:57:45.188Z,4.65
2023-01-30T03:02:20.718Z,3.25
2023-01-30T03:06:39.313Z,3.53
2023-01-30T03:11:03.266Z,4.20
2023-01-30T03:15:28.800Z,4.55
2023-01-30T03:19:40.681Z,4.65
2023-01-30T03:23:46.888Z,3.90
2023-01-30T03:27:58.811Z,4.30
2023-01-30T03:36:30.664Z,3.97
2023-01-30T03:40:57.931Z,3.67
2023-01-30T03:45:09.221Z,3.40
2023-01-30T03:49:16.986Z,4.20
2023-01-30T03:59:10.367Z,3.10
2023-01-30T04:03:43.368Z,3.58
2023-01-30T04:08:03.336Z,3.38
2023-01-30T04:12:14.670Z,3.67
2023-01-30T04:16:36.544Z,3.15
2023-01-30T04:21:02.463Z,3.35
2023-01-30T04:25:12.720Z,2.92
2023-01-30T04:29:27.313Z,4.38
2023-01-30T04:33:38.798Z,5.95
2023-01-30T04:42:30.847Z,4.03
2023-01-30T04:47:25.505Z,4.53
2023-01-30T04:52:02.500Z,4.35
2023-01-30T04:56:06.521Z,4.40
2023-01-30T05:00:11.485Z,3.97
2023-01-30T05:04:22.491Z,4.72
2023-01-30T05:08:29.299Z,3.88
2023-01-30T05:12:33.868Z,4.15
2023-01-30T05:16:38.551Z,5.03
2023-01-30T05:20:43.343Z,4.90
2023-01-30T05:24:47.942Z,4.10
2023-01-30T05:28:55.940Z,5.97
2023-01-30T05:32:59.677Z,5.28
2023-01-30T05:37:07.590Z,4.50
2023-01-30T05:41:16.278Z,5.28
2023-01-30T05:45:20.185Z,4.93
2023-01-30T05:49:24.361Z,4.72
2023-01-30T05:53:31.591Z,5.70
2023-01-30T05:57:35.057Z,5.45
2023-01-30T06:01:39.427Z,5.28
2023-01-30T06:05:47.607Z,4.93
2023-01-30T06:10:52.385Z,5.70
2023-01-30T06:14:59.221Z,5.50
2023-01-30T06:19:02.872Z,5.13
2023-01-30T06:23:07.531Z,4.75
2023-01-30T06:27:10.936Z,4.65
2023-01-30T06:31:18.533Z,5.43
2023-01-30T06:35:25.226Z,7.07
2023-01-30T06:39:29.556Z,7.35
2023-01-30T06:43:33.059Z,6.03
2023-01-30T06:47:54.403Z,7.25
2023-01-30T06:52:09.347Z,7.50
2023-01-30T07:58:16.325Z,9.60
2023-01-30T11:16:11.806Z,6.85
2023-01-30T11:20:21.317Z,6.20
2023-01-30T11:24:31.355Z,6.40
2023-01-30T11:28:39.845Z,6.15
2023-01-30T11:32:49.349Z,6.32
2023-01-30T11:36:52.858Z,6.22
2023-01-30T11:41:10.121Z,6.25
2023-01-30T11:45:18.461Z,5.70
2023-01-30T11:49:44.850Z,5.93
2023-01-30T11:53:56.702Z,6.00
2023-01-30T11:58:01.325Z,5.95
2023-01-30T12:02:26.500Z,7.28
2023-01-30T12:06:38.863Z,6.90
2023-01-30T12:10:44.694Z,6.28
2023-01-30T12:14:50.553Z,7.60
2023-01-30T12:19:06.366Z,6.55
2023-01-30T12:23:19.098Z,7.73
2023-01-30T12:27:42.017Z,7.57
2023-01-30T12:32:06.575Z,7.70
2023-01-30T12:36:17.387Z,8.25
2023-01-30T12:40:23.796Z,8.13
2023-01-30T12:44:36.751Z,7.05
2023-01-30T13:09:37.709Z,8.07
2023-01-30T13:21:35.719Z,7.65
2023-01-30T13:26:16.873Z,7.60
2023-01-30T13:57:38.081Z,10.23
2023-01-30T14:42:39.208Z,8.07
2023-01-30T14:46:54.414Z,8.18
2023-01-30T14:51:16.574Z,7.60
2023-01-30T14:55:26.992Z,7.65
2023-01-30T14:59:38.395Z,9.40
2023-01-30T15:03:46.715Z,8.23
2023-01-30T15:07:54.134Z,7.43
2023-01-30T15:12:28.633Z,7.18
2023-01-30T15:16:41.352Z,8.88
2023-01-30T15:21:15.508Z,8.55
2023-01-30T15:25:55.666Z,8.80
2023-01-30T15:30:17.216Z,8.68
2023-01-30T15:34:20.937Z,13.32
2023-01-30T15:38:34.978Z,10.60
2023-01-30T15:42:38.555Z,8.38
2023-01-30T15:46:54.612Z,9.00
2023-01-30T15:51:00.164Z,8.50
2023-01-30T15:55:03.410Z,8.43
2023-01-30T15:59:07.242Z,8.43
2023-01-30T16:03:14.698Z,7.93
2023-01-30T16:07:25.800Z,7.72
2023-01-30T16:11:37.756Z,7.32
2023-01-30T16:15:58.929Z,6.10
2023-01-30T16:20:03.045Z,7.25
2023-01-30T16:24:17.039Z,7.25
2023-01-30T16:28:24.518Z,11.55
2023-01-30T16:32:30.660Z,11.50
2023-01-30T16:36:40.020Z,10.47
2023-01-30T16:40:46.259Z,12.27
2023-01-30T16:44:48.945Z,9.97
2023-01-30T16:48:51.907Z,11.15
2023-01-30T16:52:56.179Z,10.52
2023-01-30T16:57:02.061Z,10.45
2023-01-30T17:01:07.725Z,8.93
2023-01-30T17:05:21.647Z,7.43
2023-01-30T17:09:35.798Z,7.82
2023-01-30T17:13:43.932Z,11.32
2023-01-30T17:17:47.366Z,9.02
2023-01-30T17:21:51.733Z,9.00
2023-01-30T17:25:54.527Z,8.48
2023-01-30T17:29:57.400Z,8.77
2023-01-30T17:34:00.477Z,8.30
2023-01-30T17:38:05.989Z,8.70
2023-01-30T17:42:13.337Z,11.10
2023-01-30T17:46:16.812Z,9.98
2023-01-30T17:50:19.970Z,9.52
2023-01-30T17:54:24.896Z,8.18
2023-01-30T17:58:27.723Z,8.50
2023-01-30T18:02:32.582Z,6.85
2023-01-30T18:06:36.866Z,6.80
2023-01-30T18:10:39.808Z,6.97
2023-01-30T18:14:43.053Z,8.55
2023-01-30T18:18:45.946Z,7.80
2023-01-30T18:22:49.297Z,8.25
2023-01-30T18:26:52.100Z,8.27
2023-01-30T18:30:55.016Z,8.50
2023-01-30T18:34:57.955Z,7.63
2023-01-30T18:39:00.970Z,8.70
2023-01-30T18:43:06.949Z,7.57
2023-01-30T18:47:09.897Z,6.60
2023-01-30T18:51:15.626Z,7.72
2023-01-30T18:55:18.695Z,6.40
2023-01-30T18:59:21.591Z,10.98
2023-01-30T19:03:25.421Z,5.43
2023-01-30T19:07:28.333Z,5.80
2023-01-30T19:11:50.381Z,8.65
2023-01-30T19:15:58.575Z,10.10
2023-01-30T19:20:02.510Z,4.05
2023-01-30T19:24:08.791Z,4.57
2023-01-30T19:28:11.672Z,5.87
2023-01-30T19:32:14.877Z,4.93
2023-01-30T19:36:20.502Z,4.78
2023-01-30T19:40:23.348Z,4.13
2023-01-30T19:44:26.152Z,6.97
2023-01-30T19:48:29.374Z,7.25
2023-01-30T19:52:32.207Z,5.32
2023-01-30T19:56:36.778Z,4.60
2023-01-30T20:00:39.620Z,3.65
2023-01-30T20:04:42.318Z,3.40
2023-01-30T20:08:46.913Z,5.82
2023-01-30T20:12:50.062Z,4.20
2023-01-30T20:16:52.912Z,4.15
2023-01-30T20:20:55.901Z,3.70
2023-01-30T20:24:59.011Z,3.85
2023-01-30T20:29:02.742Z,3.08
2023-01-30T20:33:06.225Z,4.13
2023-01-30T20:37:09.186Z,3.90
2023-01-30T20:41:17.831Z,3.78
2023-01-30T20:45:20.658Z,3.45
2023-01-30T20:49:23.763Z,2.97
2023-01-30T20:53:26.857Z,3.08
2023-01-30T20:57:29.919Z,3.10
2023-01-30T21:01:33.929Z,3.95
2023-01-30T21:05:37.253Z,3.30
2023-01-30T21:09:40.345Z,4.25
2023-01-30T21:13:43.325Z,3.15
2023-01-30T21:17:46.783Z,3.47
2023-01-30T21:21:53.480Z,3.63
2023-01-30T21:25:56.939Z,3.65
2023-01-30T21:30:00.627Z,4.22
2023-01-30T21:34:03.568Z,3.92
2023-01-30T21:38:25.073Z,3.33
2023-01-30T21:42:46.382Z,4.00
2023-01-30T21:46:49.671Z,4.05
2023-01-30T21:50:52.392Z,4.78
2023-01-30T21:54:57.152Z,3.95
2023-01-30T21:59:01.504Z,4.88
2023-01-30T22:03:04.485Z,3.30
2023-01-30T22:07:07.403Z,3.78
2023-01-30T22:11:14.601Z,3.90
2023-01-30T22:15:20.750Z,4.05
2023-01-30T22:19:23.800Z,3.75
2023-01-30T22:23:34.920Z,4.13
2023-01-30T22:27:38.462Z,3.20
2023-01-30T22:31:41.717Z,3.10
2023-01-30T22:35:51.520Z,3.83
2023-01-30T22:39:54.482Z,4.28
2023-01-30T22:43:59.492Z,4.03
2023-01-30T22:48:02.543Z,3.58
2023-01-30T22:52:05.318Z,3.50
2023-01-30T22:56:11.153Z,3.70
2023-01-30T23:00:16.210Z,3.38
2023-01-30T23:04:23.719Z,3.17
2023-01-30T23:08:29.362Z,3.70
2023-01-30T23:12:50.766Z,4.05
2023-01-30T23:16:53.612Z,3.10
2023-01-30T23:20:56.537Z,3.55
2023-01-30T23:24:59.654Z,3.45
2023-01-30T23:29:04.328Z,2.97
2023-01-30T23:33:07.279Z,3.78
2023-01-30T23:37:10.106Z,4.30
2023-01-30T23:41:16.029Z,3.72
2023-01-30T23:45:19.198Z,3.90
2023-01-30T23:49:22.332Z,3.38
2023-01-30T23:53:25.111Z,4.78
2023-01-30T23:57:28.019Z,3.47
